Estacada, OR (97023)

10:51 PM PDT on September 01, 2015 (GMT -0700)
valley view airport glide path | | Change Station
CLOSE
Current Station
Personal Weather Station
Location: Estacada, OR
Elevation: 735 ft
Nearby Weather Stations

Elev 735 ft 45.30 °N, 122.32 °W | Updated 13 minutes ago

Overcast
Overcast
61.3 °F
Feels Like 61.3 °F
N
2.7
Wind Variable Wind from East

Today
High -- | Low -- °F
--% Chance of Precip.
Yesterday
High -- | Low -- °F
Precip. -- in
6:30 AM 7:46 PM
Waning Gibbous, 83% visible
Pressure 29.85 in
Visibility 3.0 miles
Clouds Scattered Clouds 800 ft
Mostly Cloudy 1200 ft
Overcast 2400 ft
Dew Point 56 °F
Humidity 83%
Rainfall 0.00 in
Snow Depth Not available.
UV 0 out of 12
Pollen 2.90 out of 12
Air Quality Not available.
Flu Activity Not available.
SPECI KTTD 020540Z AUTO VRB04KT 3SM -RA BR SCT008 BKN012 OVC024 15/13 A2985 RMK AO2 P0013 T01500133
Pressure 29.85 in
Visibility 3.0 miles
Clouds Scattered Clouds 800 ft
Mostly Cloudy 1200 ft
Overcast 2400 ft
Dew Point 56 °F
Humidity 83%
Rainfall 0.00 in
Snow Depth Not available.
UV 0 out of 12
Pollen 2.90 out of 12
Air Quality Not available.
Flu Activity Not available.
SPECI KTTD 020540Z AUTO VRB04KT 3SM -RA BR SCT008 BKN012 OVC024 15/13 A2985 RMK AO2 P0013 T01500133

10-Day Weather Forecast

×

Almanac

Astronomy

Sep. 01, 2015 Rise Set
Actual Time
Civil Twilight
Nautical Twilight
Astronomical Twilight
Moon
Length of Visible Light
Length of Day
Tomorrow will be .
, % of the Moon is Illuminated

Today's Extremes

State Highs State Lows

Community

WunderPhotos

Upload Photos

1,851,709 photos uploaded!

WunderBlogs® & News

Nearby

Air Quality

  Air Quality AQ Index Pollutant
Not available.

Snow Depth

Station Depth Elevation

Earthquake Activity

City Distance Mag. Time & Date
Minimum magnitude displayed is 2.5.

Coastal Water Temperatures

Place Temperature

Stations

Nearby Weather Stations

Station Location Temp. Windchill Dew Point Humidity Wind Precip. Elev Updated Type